Front Thor — V7SL4 — position and weather

sailwx.info

Track history (hours):
 
Tides and Currents Weather Stations Pressure Air Temp Water Temp Dewpoint Dewpoint Depression Visibility Wind Speed Wind Dir Waves Ship Positions

Front Thor

Last reported at 2017-Nov-19 00:08 UTC. Time now 2017-Nov-19 05:04 UTC.
Position N 27°43' W 015°13'.

Length 275 m; draft 9.1 m.

Type: Tanker. MMSI: 538003675.

Date/timePositionNaut miles runAvg speedWind from/ knotsBaromVisibWave heightAir tempDewpointWater temp
2017-Nov-19 00:08N 27°43' W 015°13'110.0
2017-Nov-19 00:00N 27°44' W 015°13'510.0
2017-Nov-18 23:27N 27°49' W 015°09'5 9.6
2017-Nov-18 22:53N 27°54' W 015°07'410.1
2017-Nov-18 22:30N 27°57' W 015°05'510.0
2017-Nov-18 22:00N 28°02' W 015°04'4 7.9
2017-Nov-18 21:30N 28°06' W 015°05'5 9.2
2017-Nov-18 21:00N 28°06' W 015°11'5 9.3
2017-Nov-18 20:30N 28°07' W 015°16'5 9.8
2017-Nov-18 20:00N 28°08' W 015°21'2 4.1
2017-Nov-18 19:29N 28°08' W 015°24'0 0.2
2017-Nov-18 18:59N 28°08' W 015°24'0 0.0
2017-Nov-18 18:29N 28°08' W 015°24'0 0.0
2017-Nov-18 17:59N 28°08' W 015°24'0 0.0
2017-Nov-18 17:29N 28°08' W 015°24'0 0.1
2017-Nov-18 16:59N 28°08' W 015°24'0 0.0
2017-Nov-18 16:29N 28°08' W 015°24'0 0.1
2017-Nov-18 15:59N 28°08' W 015°24'0 0.0
2017-Nov-18 15:20N 28°08' W 015°24'0 0.1
2017-Nov-18 14:50N 28°08' W 015°24'0 0.0
2017-Nov-18 14:20N 28°08' W 015°24'0 0.0
2017-Nov-18 13:53N 28°08' W 015°24'0 0.1
2017-Nov-18 13:23N 28°08' W 015°24'0 0.0
2017-Nov-18 12:53N 28°08' W 015°24'0 0.0
2017-Nov-18 12:23N 28°08' W 015°24'0 0.1
2017-Nov-18 11:53N 28°08' W 015°24'0 0.1
2017-Nov-18 11:23N 28°08' W 015°24'0 0.0
2017-Nov-18 10:56N 28°08' W 015°24'0 0.0
2017-Nov-18 10:26N 28°08' W 015°24'0 0.0
2017-Nov-18 09:56N 28°08' W 015°24'0 0.1
2017-Nov-18 09:23N 28°08' W 015°24'0 0.0
2017-Nov-18 08:56N 28°08' W 015°24'0 0.0
2017-Nov-18 08:26N 28°08' W 015°24'0 0.0
2017-Nov-18 07:59N 28°08' W 015°24'0 0.0
2017-Nov-18 07:29N 28°08' W 015°24'0 0.0
2017-Nov-18 06:59N 28°08' W 015°24'0 0.1
2017-Nov-18 06:29N 28°08' W 015°24'0 0.1
2017-Nov-18 05:59N 28°08' W 015°24'0 0.0
2017-Nov-18 05:26N 28°08' W 015°24'0 0.0
2017-Nov-18 04:59N 28°08' W 015°24'0 0.0
2017-Nov-18 04:29N 28°08' W 015°24'0 0.0
2017-Nov-18 03:59N 28°08' W 015°24'0 0.1
2017-Nov-18 03:29N 28°08' W 015°24'0 0.3
2017-Nov-18 03:00N 28°08' W 015°24'0 0.5
2017-Nov-18 02:30N 28°08' W 015°23'1 2.8
2017-Nov-18 02:00N 28°07' W 015°22'2 4.2
2017-Nov-18 01:30N 28°08' W 015°20'3 6.0
2017-Nov-18 01:00N 28°08' W 015°16'5 9.8
2017-Nov-18 00:30N 28°09' W 015°11'510.1
2017-Nov-18 00:00N 28°11' W 015°05'5 9.9
2017-Nov-17 23:30N 28°12' W 014°60'510.4
2017-Nov-17 23:00N 28°17' W 014°58'510.1
2017-Nov-17 22:30N 28°21' W 014°56'510.2
2017-Nov-17 22:00N 28°26' W 014°54'510.4
2017-Nov-17 21:30N 28°31' W 014°52'510.3
2017-Nov-17 21:00N 28°36' W 014°51'1210.2
2017-Nov-17 19:48N 28°48' W 014°47'58 8.8
2017-Nov-17 13:12N 29°43' W 014°28'2 7.1
2017-Nov-17 12:58N 29°45' W 014°27'  
2017-Nov-15 03:34N 38°59' W 011°03'110.3
2017-Nov-15 03:30N 38°60' W 011°03'610.1
2017-Nov-15 02:53N 39°05' W 011°00'610.0
2017-Nov-15 02:16N 39°12' W 010°58'369 7.5
2017-Nov-13 01:10N 43°57' W 005°46'2 8.7
2017-Nov-13 00:57N 43°57' W 005°43'69 7.8
2017-Nov-12 16:08N 43°46' W 004°09'1 6.6
2017-Nov-12 15:55N 43°45' W 004°07'3 6.3
2017-Nov-12 15:30N 43°45' W 004°04'3 6.0
2017-Nov-12 15:00N 43°45' W 003°60'3 5.8
2017-Nov-12 14:31N 43°44' W 003°56'3 5.8
2017-Nov-12 14:00N 43°44' W 003°52'3 5.8
2017-Nov-12 13:30N 43°43' W 003°48'3 5.9
2017-Nov-12 13:01N 43°43' W 003°44'3 5.8
2017-Nov-12 12:30N 43°42' W 003°40'3 6.0
2017-Nov-12 12:01N 43°42' W 003°36'3 5.8
2017-Nov-12 11:31N 43°41' W 003°32'3 6.2
2017-Nov-12 11:00N 43°39' W 003°29'3 6.2
2017-Nov-12 10:31N 43°37' W 003°26'3 6.6
2017-Nov-12 10:01N 43°35' W 003°22'3 6.9
2017-Nov-12 09:31N 43°32' W 003°18'4 7.1
2017-Nov-12 09:01N 43°30' W 003°15'4 7.1
2017-Nov-12 08:31N 43°28' W 003°10'4 7.3
2017-Nov-12 08:00N 43°27' W 003°06'3 6.8
2017-Nov-12 07:31N 43°24' W 003°03'3 5.3
2017-Nov-12 07:00N 43°22' W 003°05'0 0.8
2017-Nov-12 06:29N 43°22' W 003°06'0 0.0
2017-Nov-12 05:59N 43°22' W 003°06'0 0.0
2017-Nov-12 05:29N 43°22' W 003°06'0 0.0
2017-Nov-12 04:59N 43°22' W 003°06'0 0.0
2017-Nov-12 04:29N 43°22' W 003°06'0 0.0
2017-Nov-12 03:59N 43°22' W 003°06'0 0.0
2017-Nov-12 03:29N 43°22' W 003°06'0 0.0
2017-Nov-12 02:59N 43°22' W 003°06'0 0.0
2017-Nov-12 02:29N 43°22' W 003°06'0 0.0
2017-Nov-12 01:59N 43°22' W 003°06'0 0.0
2017-Nov-12 01:29N 43°22' W 003°06'0 0.0
2017-Nov-12 00:59N 43°22' W 003°06'0 0.0
2017-Nov-12 00:29N 43°22' W 003°06'0 0.0
2017-Nov-11 23:59N 43°22' W 003°06'0 0.0
2017-Nov-11 23:29N 43°22' W 003°06'0 0.0
2017-Nov-11 22:59N 43°22' W 003°06'0 0.0
2017-Nov-11 22:29N 43°22' W 003°06'0 0.0
2017-Nov-11 21:59N 43°22' W 003°06'0 0.0
2017-Nov-11 21:29N 43°22' W 003°06'0 0.0
2017-Nov-11 20:59N 43°22' W 003°06'0 0.0
2017-Nov-11 20:29N 43°22' W 003°06'0 0.0
2017-Nov-11 19:59N 43°22' W 003°06'0 0.0
2017-Nov-11 19:29N 43°22' W 003°06'0 0.0
2017-Nov-11 18:59N 43°22' W 003°06'0 0.0
2017-Nov-11 18:29N 43°22' W 003°06'0 0.0
2017-Nov-11 17:59N 43°22' W 003°06'0 0.0
2017-Nov-11 17:29N 43°22' W 003°06'0 0.0
2017-Nov-11 16:59N 43°22' W 003°06'0 0.0
2017-Nov-11 16:29N 43°22' W 003°06'0 0.0
2017-Nov-11 15:59N 43°22' W 003°06'0 0.0
2017-Nov-11 15:29N 43°22' W 003°06'0 0.0
2017-Nov-11 14:59N 43°22' W 003°06'0 0.0
2017-Nov-11 14:29N 43°22' W 003°06'0 0.0
2017-Nov-11 13:59N 43°22' W 003°06'0 0.0
2017-Nov-11 13:29N 43°22' W 003°06'0 0.0
2017-Nov-11 12:59N 43°22' W 003°06'0 0.0
2017-Nov-11 12:29N 43°22' W 003°06'0 0.0
2017-Nov-11 11:59N 43°22' W 003°06'0 0.0
2017-Nov-11 11:29N 43°22' W 003°06'0 0.0
2017-Nov-11 10:59N 43°22' W 003°06'0 0.0
2017-Nov-11 10:29N 43°22' W 003°06'0 0.0
2017-Nov-11 09:59N 43°22' W 003°06'0 0.0
2017-Nov-11 09:29N 43°22' W 003°06'0 0.0
2017-Nov-11 08:59N 43°22' W 003°06'0 0.0
2017-Nov-11 08:29N 43°22' W 003°06'0 0.0
2017-Nov-11 07:59N 43°22' W 003°06'0 0.0
2017-Nov-11 07:29N 43°22' W 003°06'0 0.0
2017-Nov-11 06:59N 43°22' W 003°06'0 0.0
2017-Nov-11 06:29N 43°22' W 003°06'0 0.0
2017-Nov-11 05:59N 43°22' W 003°06'0 0.0
2017-Nov-11 05:29N 43°22' W 003°06'0 0.3
2017-Nov-11 05:01N 43°22' W 003°05'2 3.1
2017-Nov-11 04:31N 43°24' W 003°05'0 0.4
2017-Nov-11 03:59N 43°24' W 003°04'0 0.0
2017-Nov-11 03:29N 43°24' W 003°04'0 0.0
2017-Nov-11 02:59N 43°24' W 003°04'0 0.0
2017-Nov-11 02:29N 43°24' W 003°04'0 0.0
2017-Nov-11 01:59N 43°24' W 003°04'0 0.0
2017-Nov-11 01:29N 43°24' W 003°04'0 0.0
2017-Nov-11 00:59N 43°24' W 003°04'0 0.0
2017-Nov-11 00:29N 43°24' W 003°04'0 0.0
2017-Nov-10 23:59N 43°24' W 003°04'0 0.0
2017-Nov-10 23:29N 43°24' W 003°04'0 0.2
2017-Nov-10 22:59N 43°24' W 003°04'0 0.2
2017-Nov-10 22:29N 43°23' W 003°04'0 0.0
2017-Nov-10 21:59N 43°23' W 003°04'0 0.0
2017-Nov-10 21:29N 43°23' W 003°04'0 0.1
2017-Nov-10 20:59N 43°23' W 003°04'0 0.1
2017-Nov-10 20:29N 43°23' W 003°04'0 0.1
2017-Nov-10 19:59N 43°23' W 003°04'0 0.1
2017-Nov-10 19:29N 43°24' W 003°04'0 0.4
2017-Nov-10 18:59N 43°24' W 003°05'0 0.1
2017-Nov-10 18:29N 43°24' W 003°05'0 0.2
2017-Nov-10 17:59N 43°24' W 003°04'0 0.0
2017-Nov-10 17:29N 43°24' W 003°04'0 0.0
2017-Nov-10 16:59N 43°24' W 003°04'0 0.1
2017-Nov-10 16:29N 43°24' W 003°04'0 0.0
2017-Nov-10 15:59N 43°24' W 003°04'0 0.0
2017-Nov-10 15:29N 43°24' W 003°04'0 0.0
2017-Nov-10 14:59N 43°24' W 003°04'0 0.1
2017-Nov-10 14:29N 43°24' W 003°05'0 0.0
2017-Nov-10 13:59N 43°24' W 003°05'0 0.0
2017-Nov-10 13:29N 43°24' W 003°05'0 0.0
2017-Nov-10 12:59N 43°24' W 003°05'0 0.1
2017-Nov-10 12:29N 43°24' W 003°04'0 0.0
2017-Nov-10 11:59N 43°24' W 003°04'0 0.1
2017-Nov-10 11:29N 43°24' W 003°04'0 0.0
2017-Nov-10 10:59N 43°24' W 003°05'0 0.1
2017-Nov-10 10:29N 43°24' W 003°04'0 0.0
2017-Nov-10 09:59N 43°24' W 003°04'0 0.0
2017-Nov-10 09:29N 43°24' W 003°04'0 0.0
2017-Nov-10 08:59N 43°24' W 003°04'0 0.1
2017-Nov-10 08:29N 43°24' W 003°04'0 0.1
2017-Nov-10 07:59N 43°24' W 003°04'0 0.0
2017-Nov-10 07:29N 43°24' W 003°04'0 0.0
2017-Nov-10 06:59N 43°24' W 003°04'0 0.1
2017-Nov-10 06:29N 43°24' W 003°04'0 0.1
2017-Nov-10 05:59N 43°24' W 003°04'0 0.1
2017-Nov-10 05:29N 43°24' W 003°04'0 0.1
2017-Nov-10 04:59N 43°24' W 003°04'0 0.1
2017-Nov-10 04:29N 43°24' W 003°04'0 0.0
2017-Nov-10 03:59N 43°24' W 003°04'0 0.0
2017-Nov-10 03:29N 43°24' W 003°04'0 0.0
2017-Nov-10 02:59N 43°24' W 003°04'0 0.0
2017-Nov-10 02:29N 43°24' W 003°04'0 0.0
2017-Nov-10 01:59N 43°24' W 003°04'0 0.1
2017-Nov-10 01:29N 43°24' W 003°04'0 0.2
2017-Nov-10 00:59N 43°24' W 003°04'0 0.0
2017-Nov-10 00:29N 43°24' W 003°04'0 0.0
2017-Nov-09 23:59N 43°24' W 003°04'0 0.1
2017-Nov-09 23:29N 43°24' W 003°04'0 0.0
2017-Nov-09 22:59N 43°24' W 003°04'0 0.0
2017-Nov-09 22:29N 43°24' W 003°04'0 0.0
2017-Nov-09 21:59N 43°24' W 003°04'0 0.1
2017-Nov-09 21:29N 43°24' W 003°04'0 0.1
2017-Nov-09 20:59N 43°24' W 003°04'0 0.0
2017-Nov-09 20:29N 43°24' W 003°05'0 0.1
2017-Nov-09 19:59N 43°24' W 003°04'0 0.0
2017-Nov-09 19:29N 43°24' W 003°04'0 0.1
2017-Nov-09 18:59N 43°24' W 003°05'0 0.1
2017-Nov-09 18:29N 43°24' W 003°05'0 0.1
2017-Nov-09 17:59N 43°24' W 003°04'0 0.1
2017-Nov-09 17:29N 43°24' W 003°04'0 0.6
2017-Nov-09 17:01N 43°24' W 003°05'1 1.3
2017-Nov-09 16:31N 43°24' W 003°04'1 1.1
2017-Nov-09 16:01N 43°24' W 003°04'1 2.2
2017-Nov-09 15:30N 43°25' W 003°06'2 4.5
2017-Nov-09 15:01N 43°27' W 003°07'1 1.7
2017-Nov-09 14:30N 43°27' W 003°08'1 2.4
2017-Nov-09 14:00N 43°28' W 003°09'1 2.5
2017-Nov-09 13:30N 43°29' W 003°10'2 3.4
2017-Nov-09 13:01N 43°31' W 003°11'1 1.4
2017-Nov-09 12:31N 43°31' W 003°12'1 1.8
2017-Nov-09 12:00N 43°30' W 003°13'1 2.1
2017-Nov-09 11:31N 43°30' W 003°14'1 1.5
2017-Nov-09 11:01N 43°30' W 003°13'0 0.4
2017-Nov-09 10:31N 43°30' W 003°13'0 0.7
2017-Nov-09 10:01N 43°30' W 003°13'1 1.3
2017-Nov-09 09:30N 43°31' W 003°12'0 0.5
2017-Nov-09 09:01N 43°31' W 003°12'0 0.4
2017-Nov-09 08:31N 43°31' W 003°12'0 0.4
2017-Nov-09 08:00N 43°31' W 003°12'0 0.7
2017-Nov-09 07:31N 43°30' W 003°12'1 1.0
2017-Nov-09 07:01N 43°31' W 003°12'0 0.6
2017-Nov-09 06:31N 43°30' W 003°13'0 0.5
2017-Nov-09 06:01N 43°31' W 003°13'0 0.5
2017-Nov-09 05:30N 43°30' W 003°13'0 0.5
2017-Nov-09 05:00N 43°31' W 003°12'0 0.9
2017-Nov-09 04:30N 43°31' W 003°12'1 1.4
2017-Nov-09 04:01N 43°31' W 003°11'1 1.1
2017-Nov-09 03:31N 43°30' W 003°11'0 0.8
2017-Nov-09 03:01N 43°30' W 003°11'1 1.8
2017-Nov-09 02:31N 43°31' W 003°10'1 1.0
2017-Nov-09 02:00N 43°31' W 003°10'0 0.8
2017-Nov-09 01:31N 43°31' W 003°10'1 1.2
2017-Nov-09 01:01N 43°31' W 003°11'1 1.4
2017-Nov-09 00:31N 43°30' W 003°11'  
Track history (hours):
 
Tides and Currents Weather Stations Pressure Air Temp Water Temp Dewpoint Dewpoint Depression Visibility Wind Speed Wind Dir Waves Ship Positions

Front Thor

Last reported at 2017-Nov-19 00:08 UTC. Time now 2017-Nov-19 05:04 UTC.
Position N 27°43' W 015°13'.

Length 275 m; draft 9.1 m.

Type: Tanker. MMSI: 538003675.

Date/timePositionNaut miles runAvg speedWind from/ knotsBaromVisibWave heightAir tempDewpointWater temp
2017-Nov-19 00:08N 27°43' W 015°13'110.0
2017-Nov-19 00:00N 27°44' W 015°13'510.0
2017-Nov-18 23:27N 27°49' W 015°09'5 9.6
2017-Nov-18 22:53N 27°54' W 015°07'410.1
2017-Nov-18 22:30N 27°57' W 015°05'510.0
2017-Nov-18 22:00N 28°02' W 015°04'4 7.9
2017-Nov-18 21:30N 28°06' W 015°05'5 9.2
2017-Nov-18 21:00N 28°06' W 015°11'5 9.3
2017-Nov-18 20:30N 28°07' W 015°16'5 9.8
2017-Nov-18 20:00N 28°08' W 015°21'2 4.1
2017-Nov-18 19:29N 28°08' W 015°24'0 0.2
2017-Nov-18 18:59N 28°08' W 015°24'0 0.0
2017-Nov-18 18:29N 28°08' W 015°24'0 0.0
2017-Nov-18 17:59N 28°08' W 015°24'0 0.0
2017-Nov-18 17:29N 28°08' W 015°24'0 0.1
2017-Nov-18 16:59N 28°08' W 015°24'0 0.0
2017-Nov-18 16:29N 28°08' W 015°24'0 0.1
2017-Nov-18 15:59N 28°08' W 015°24'0 0.0
2017-Nov-18 15:20N 28°08' W 015°24'0 0.1
2017-Nov-18 14:50N 28°08' W 015°24'0 0.0
2017-Nov-18 14:20N 28°08' W 015°24'0 0.0
2017-Nov-18 13:53N 28°08' W 015°24'0 0.1
2017-Nov-18 13:23N 28°08' W 015°24'0 0.0
2017-Nov-18 12:53N 28°08' W 015°24'0 0.0
2017-Nov-18 12:23N 28°08' W 015°24'0 0.1
2017-Nov-18 11:53N 28°08' W 015°24'0 0.1
2017-Nov-18 11:23N 28°08' W 015°24'0 0.0
2017-Nov-18 10:56N 28°08' W 015°24'0 0.0
2017-Nov-18 10:26N 28°08' W 015°24'0 0.0
2017-Nov-18 09:56N 28°08' W 015°24'0 0.1
2017-Nov-18 09:23N 28°08' W 015°24'0 0.0
2017-Nov-18 08:56N 28°08' W 015°24'0 0.0
2017-Nov-18 08:26N 28°08' W 015°24'0 0.0
2017-Nov-18 07:59N 28°08' W 015°24'0 0.0
2017-Nov-18 07:29N 28°08' W 015°24'0 0.0
2017-Nov-18 06:59N 28°08' W 015°24'0 0.1
2017-Nov-18 06:29N 28°08' W 015°24'0 0.1
2017-Nov-18 05:59N 28°08' W 015°24'0 0.0
2017-Nov-18 05:26N 28°08' W 015°24'0 0.0
2017-Nov-18 04:59N 28°08' W 015°24'0 0.0
2017-Nov-18 04:29N 28°08' W 015°24'0 0.0
2017-Nov-18 03:59N 28°08' W 015°24'0 0.1
2017-Nov-18 03:29N 28°08' W 015°24'0 0.3
2017-Nov-18 03:00N 28°08' W 015°24'0 0.5
2017-Nov-18 02:30N 28°08' W 015°23'1 2.8
2017-Nov-18 02:00N 28°07' W 015°22'2 4.2
2017-Nov-18 01:30N 28°08' W 015°20'3 6.0
2017-Nov-18 01:00N 28°08' W 015°16'5 9.8
2017-Nov-18 00:30N 28°09' W 015°11'510.1
2017-Nov-18 00:00N 28°11' W 015°05'5 9.9
2017-Nov-17 23:30N 28°12' W 014°60'510.4
2017-Nov-17 23:00N 28°17' W 014°58'510.1
2017-Nov-17 22:30N 28°21' W 014°56'510.2
2017-Nov-17 22:00N 28°26' W 014°54'510.4
2017-Nov-17 21:30N 28°31' W 014°52'510.3
2017-Nov-17 21:00N 28°36' W 014°51'1210.2
2017-Nov-17 19:48N 28°48' W 014°47'58 8.8
2017-Nov-17 13:12N 29°43' W 014°28'2 7.1
2017-Nov-17 12:58N 29°45' W 014°27'  
2017-Nov-15 03:34N 38°59' W 011°03'110.3
2017-Nov-15 03:30N 38°60' W 011°03'610.1
2017-Nov-15 02:53N 39°05' W 011°00'610.0
2017-Nov-15 02:16N 39°12' W 010°58'369 7.5
2017-Nov-13 01:10N 43°57' W 005°46'2 8.7
2017-Nov-13 00:57N 43°57' W 005°43'69 7.8
2017-Nov-12 16:08N 43°46' W 004°09'1 6.6
2017-Nov-12 15:55N 43°45' W 004°07'3 6.3
2017-Nov-12 15:30N 43°45' W 004°04'3 6.0
2017-Nov-12 15:00N 43°45' W 003°60'3 5.8
2017-Nov-12 14:31N 43°44' W 003°56'3 5.8
2017-Nov-12 14:00N 43°44' W 003°52'3 5.8
2017-Nov-12 13:30N 43°43' W 003°48'3 5.9
2017-Nov-12 13:01N 43°43' W 003°44'3 5.8
2017-Nov-12 12:30N 43°42' W 003°40'3 6.0
2017-Nov-12 12:01N 43°42' W 003°36'3 5.8
2017-Nov-12 11:31N 43°41' W 003°32'3 6.2
2017-Nov-12 11:00N 43°39' W 003°29'3 6.2
2017-Nov-12 10:31N 43°37' W 003°26'3 6.6
2017-Nov-12 10:01N 43°35' W 003°22'3 6.9
2017-Nov-12 09:31N 43°32' W 003°18'4 7.1
2017-Nov-12 09:01N 43°30' W 003°15'4 7.1
2017-Nov-12 08:31N 43°28' W 003°10'4 7.3
2017-Nov-12 08:00N 43°27' W 003°06'3 6.8
2017-Nov-12 07:31N 43°24' W 003°03'3 5.3
2017-Nov-12 07:00N 43°22' W 003°05'0 0.8
2017-Nov-12 06:29N 43°22' W 003°06'0 0.0
2017-Nov-12 05:59N 43°22' W 003°06'0 0.0
2017-Nov-12 05:29N 43°22' W 003°06'0 0.0
2017-Nov-12 04:59N 43°22' W 003°06'0 0.0
2017-Nov-12 04:29N 43°22' W 003°06'0 0.0
2017-Nov-12 03:59N 43°22' W 003°06'0 0.0
2017-Nov-12 03:29N 43°22' W 003°06'0 0.0
2017-Nov-12 02:59N 43°22' W 003°06'0 0.0
2017-Nov-12 02:29N 43°22' W 003°06'0 0.0
2017-Nov-12 01:59N 43°22' W 003°06'0 0.0
2017-Nov-12 01:29N 43°22' W 003°06'0 0.0
2017-Nov-12 00:59N 43°22' W 003°06'0 0.0
2017-Nov-12 00:29N 43°22' W 003°06'0 0.0
2017-Nov-11 23:59N 43°22' W 003°06'0 0.0
2017-Nov-11 23:29N 43°22' W 003°06'0 0.0
2017-Nov-11 22:59N 43°22' W 003°06'0 0.0
2017-Nov-11 22:29N 43°22' W 003°06'0 0.0
2017-Nov-11 21:59N 43°22' W 003°06'0 0.0
2017-Nov-11 21:29N 43°22' W 003°06'0 0.0
2017-Nov-11 20:59N 43°22' W 003°06'0 0.0
2017-Nov-11 20:29N 43°22' W 003°06'0 0.0
2017-Nov-11 19:59N 43°22' W 003°06'0 0.0
2017-Nov-11 19:29N 43°22' W 003°06'0 0.0
2017-Nov-11 18:59N 43°22' W 003°06'0 0.0
2017-Nov-11 18:29N 43°22' W 003°06'0 0.0
2017-Nov-11 17:59N 43°22' W 003°06'0 0.0
2017-Nov-11 17:29N 43°22' W 003°06'0 0.0
2017-Nov-11 16:59N 43°22' W 003°06'0 0.0
2017-Nov-11 16:29N 43°22' W 003°06'0 0.0
2017-Nov-11 15:59N 43°22' W 003°06'0 0.0
2017-Nov-11 15:29N 43°22' W 003°06'0 0.0
2017-Nov-11 14:59N 43°22' W 003°06'0 0.0
2017-Nov-11 14:29N 43°22' W 003°06'0 0.0
2017-Nov-11 13:59N 43°22' W 003°06'0 0.0
2017-Nov-11 13:29N 43°22' W 003°06'0 0.0
2017-Nov-11 12:59N 43°22' W 003°06'0 0.0
2017-Nov-11 12:29N 43°22' W 003°06'0 0.0
2017-Nov-11 11:59N 43°22' W 003°06'0 0.0
2017-Nov-11 11:29N 43°22' W 003°06'0 0.0
2017-Nov-11 10:59N 43°22' W 003°06'0 0.0
2017-Nov-11 10:29N 43°22' W 003°06'0 0.0
2017-Nov-11 09:59N 43°22' W 003°06'0 0.0
2017-Nov-11 09:29N 43°22' W 003°06'0 0.0
2017-Nov-11 08:59N 43°22' W 003°06'0 0.0
2017-Nov-11 08:29N 43°22' W 003°06'0 0.0
2017-Nov-11 07:59N 43°22' W 003°06'0 0.0
2017-Nov-11 07:29N 43°22' W 003°06'0 0.0
2017-Nov-11 06:59N 43°22' W 003°06'0 0.0
2017-Nov-11 06:29N 43°22' W 003°06'0 0.0
2017-Nov-11 05:59N 43°22' W 003°06'0 0.0
2017-Nov-11 05:29N 43°22' W 003°06'0 0.3
2017-Nov-11 05:01N 43°22' W 003°05'2 3.1
2017-Nov-11 04:31N 43°24' W 003°05'0 0.4
2017-Nov-11 03:59N 43°24' W 003°04'0 0.0
2017-Nov-11 03:29N 43°24' W 003°04'0 0.0
2017-Nov-11 02:59N 43°24' W 003°04'0 0.0
2017-Nov-11 02:29N 43°24' W 003°04'0 0.0
2017-Nov-11 01:59N 43°24' W 003°04'0 0.0
2017-Nov-11 01:29N 43°24' W 003°04'0 0.0
2017-Nov-11 00:59N 43°24' W 003°04'0 0.0
2017-Nov-11 00:29N 43°24' W 003°04'0 0.0
2017-Nov-10 23:59N 43°24' W 003°04'0 0.0
2017-Nov-10 23:29N 43°24' W 003°04'0 0.2
2017-Nov-10 22:59N 43°24' W 003°04'0 0.2
2017-Nov-10 22:29N 43°23' W 003°04'0 0.0
2017-Nov-10 21:59N 43°23' W 003°04'0 0.0
2017-Nov-10 21:29N 43°23' W 003°04'0 0.1
2017-Nov-10 20:59N 43°23' W 003°04'0 0.1
2017-Nov-10 20:29N 43°23' W 003°04'0 0.1
2017-Nov-10 19:59N 43°23' W 003°04'0 0.1
2017-Nov-10 19:29N 43°24' W 003°04'0 0.4
2017-Nov-10 18:59N 43°24' W 003°05'0 0.1
2017-Nov-10 18:29N 43°24' W 003°05'0 0.2
2017-Nov-10 17:59N 43°24' W 003°04'0 0.0
2017-Nov-10 17:29N 43°24' W 003°04'0 0.0
2017-Nov-10 16:59N 43°24' W 003°04'0 0.1
2017-Nov-10 16:29N 43°24' W 003°04'0 0.0
2017-Nov-10 15:59N 43°24' W 003°04'0 0.0
2017-Nov-10 15:29N 43°24' W 003°04'0 0.0
2017-Nov-10 14:59N 43°24' W 003°04'0 0.1
2017-Nov-10 14:29N 43°24' W 003°05'0 0.0
2017-Nov-10 13:59N 43°24' W 003°05'0 0.0
2017-Nov-10 13:29N 43°24' W 003°05'0 0.0
2017-Nov-10 12:59N 43°24' W 003°05'0 0.1
2017-Nov-10 12:29N 43°24' W 003°04'0 0.0
2017-Nov-10 11:59N 43°24' W 003°04'0 0.1
2017-Nov-10 11:29N 43°24' W 003°04'0 0.0
2017-Nov-10 10:59N 43°24' W 003°05'0 0.1
2017-Nov-10 10:29N 43°24' W 003°04'0 0.0
2017-Nov-10 09:59N 43°24' W 003°04'0 0.0
2017-Nov-10 09:29N 43°24' W 003°04'0 0.0
2017-Nov-10 08:59N 43°24' W 003°04'0 0.1
2017-Nov-10 08:29N 43°24' W 003°04'0 0.1
2017-Nov-10 07:59N 43°24' W 003°04'0 0.0
2017-Nov-10 07:29N 43°24' W 003°04'0 0.0
2017-Nov-10 06:59N 43°24' W 003°04'0 0.1
2017-Nov-10 06:29N 43°24' W 003°04'0 0.1
2017-Nov-10 05:59N 43°24' W 003°04'0 0.1
2017-Nov-10 05:29N 43°24' W 003°04'0 0.1
2017-Nov-10 04:59N 43°24' W 003°04'0 0.1
2017-Nov-10 04:29N 43°24' W 003°04'0 0.0
2017-Nov-10 03:59N 43°24' W 003°04'0 0.0
2017-Nov-10 03:29N 43°24' W 003°04'0 0.0
2017-Nov-10 02:59N 43°24' W 003°04'0 0.0
2017-Nov-10 02:29N 43°24' W 003°04'0 0.0
2017-Nov-10 01:59N 43°24' W 003°04'0 0.1
2017-Nov-10 01:29N 43°24' W 003°04'0 0.2
2017-Nov-10 00:59N 43°24' W 003°04'0 0.0
2017-Nov-10 00:29N 43°24' W 003°04'0 0.0
2017-Nov-09 23:59N 43°24' W 003°04'0 0.1
2017-Nov-09 23:29N 43°24' W 003°04'0 0.0
2017-Nov-09 22:59N 43°24' W 003°04'0 0.0
2017-Nov-09 22:29N 43°24' W 003°04'0 0.0
2017-Nov-09 21:59N 43°24' W 003°04'0 0.1
2017-Nov-09 21:29N 43°24' W 003°04'0 0.1
2017-Nov-09 20:59N 43°24' W 003°04'0 0.0
2017-Nov-09 20:29N 43°24' W 003°05'0 0.1
2017-Nov-09 19:59N 43°24' W 003°04'0 0.0
2017-Nov-09 19:29N 43°24' W 003°04'0 0.1
2017-Nov-09 18:59N 43°24' W 003°05'0 0.1
2017-Nov-09 18:29N 43°24' W 003°05'0 0.1
2017-Nov-09 17:59N 43°24' W 003°04'0 0.1
2017-Nov-09 17:29N 43°24' W 003°04'0 0.6
2017-Nov-09 17:01N 43°24' W 003°05'1 1.3
2017-Nov-09 16:31N 43°24' W 003°04'1 1.1
2017-Nov-09 16:01N 43°24' W 003°04'1 2.2
2017-Nov-09 15:30N 43°25' W 003°06'2 4.5
2017-Nov-09 15:01N 43°27' W 003°07'1 1.7
2017-Nov-09 14:30N 43°27' W 003°08'1 2.4
2017-Nov-09 14:00N 43°28' W 003°09'1 2.5
2017-Nov-09 13:30N 43°29' W 003°10'2 3.4
2017-Nov-09 13:01N 43°31' W 003°11'1 1.4
2017-Nov-09 12:31N 43°31' W 003°12'1 1.8
2017-Nov-09 12:00N 43°30' W 003°13'1 2.1
2017-Nov-09 11:31N 43°30' W 003°14'1 1.5
2017-Nov-09 11:01N 43°30' W 003°13'0 0.4
2017-Nov-09 10:31N 43°30' W 003°13'0 0.7
2017-Nov-09 10:01N 43°30' W 003°13'1 1.3
2017-Nov-09 09:30N 43°31' W 003°12'0 0.5
2017-Nov-09 09:01N 43°31' W 003°12'0 0.4
2017-Nov-09 08:31N 43°31' W 003°12'0 0.4
2017-Nov-09 08:00N 43°31' W 003°12'0 0.7
2017-Nov-09 07:31N 43°30' W 003°12'1 1.0
2017-Nov-09 07:01N 43°31' W 003°12'0 0.6
2017-Nov-09 06:31N 43°30' W 003°13'0 0.5
2017-Nov-09 06:01N 43°31' W 003°13'0 0.5
2017-Nov-09 05:30N 43°30' W 003°13'0 0.5
2017-Nov-09 05:00N 43°31' W 003°12'0 0.9
2017-Nov-09 04:30N 43°31' W 003°12'1 1.4
2017-Nov-09 04:01N 43°31' W 003°11'1 1.1
2017-Nov-09 03:31N 43°30' W 003°11'0 0.8
2017-Nov-09 03:01N 43°30' W 003°11'1 1.8
2017-Nov-09 02:31N 43°31' W 003°10'1 1.0
2017-Nov-09 02:00N 43°31' W 003°10'0 0.8
2017-Nov-09 01:31N 43°31' W 003°10'1 1.2
2017-Nov-09 01:01N 43°31' W 003°11'1 1.4
2017-Nov-09 00:31N 43°30' W 003°11'  

Dump ship's entire track history